Time;durP1;ratioP1;P1;durP2;ratioP2;P2;SDS_P1;SDS_P2;PMS_P1;PMS_P2;Temp;Humidity;BMP_temperature;BMP_pressure;BME280_temperature;BME280_humidity;BME280_pressure;Samples;Min_cycle;Max_cycle;Signal;HPM_P1;HPM_P2
2023/04/08 00:01:53;;;;;;;21.90;9.57;;;;;;;6.86;100.00;102115.81;5032702;28;20278;-94
2023/04/08 00:04:18;;;;;;;20.02;9.35;;;;;;;6.90;100.00;102116.25;5034040;28;20475;-94
2023/04/08 00:06:46;;;;;;;26.27;10.68;;;;;;;6.88;100.00;102118.31;5032861;28;20021;-95
2023/04/08 00:09:12;;;;;;;25.42;10.13;;;;;;;7.04;100.00;102141.09;5032281;28;20473;-93
2023/04/08 00:11:37;;;;;;;30.20;10.03;;;;;;;7.04;100.00;102138.41;5032294;28;20025;-93
2023/04/08 00:14:03;;;;;;;25.13;10.37;;;;;;;7.00;100.00;102135.34;5035406;28;20051;-93
2023/04/08 00:16:28;;;;;;;18.63;9.93;;;;;;;6.96;100.00;102120.78;5036228;28;20310;-95
2023/04/08 00:18:57;;;;;;;23.90;9.97;;;;;;;7.02;100.00;102133.28;5036085;28;20029;-94
2023/04/08 00:21:26;;;;;;;34.00;11.17;;;;;;;7.07;100.00;102138.84;5035419;28;20288;-94
2023/04/08 00:23:51;;;;;;;30.15;10.85;;;;;;;7.08;100.00;102135.16;5038564;28;20028;-94
2023/04/08 00:26:26;;;;;;;28.13;10.55;;;;;;;7.03;100.00;102126.94;5047985;28;20037;-93
2023/04/08 00:28:52;;;;;;;28.77;10.43;;;;;;;6.97;100.00;102125.06;5057660;28;20022;-94
2023/04/08 00:31:17;;;;;;;31.33;11.40;;;;;;;7.08;100.00;102142.31;5051852;28;20311;-93
2023/04/08 00:33:42;;;;;;;26.90;10.70;;;;;;;6.93;100.00;102113.19;5047185;28;20068;-93
2023/04/08 00:36:08;;;;;;;24.33;10.70;;;;;;;6.99;100.00;102119.56;5042416;28;20052;-95
2023/04/08 00:38:33;;;;;;;24.33;10.80;;;;;;;7.10;100.00;102141.13;5043869;28;20065;-95
2023/04/08 00:41:01;;;;;;;27.93;11.23;;;;;;;6.94;100.00;102118.31;5046485;28;20021;-95
2023/04/08 00:43:30;;;;;;;24.42;11.80;;;;;;;6.92;100.00;102114.22;5046967;28;20033;-94
2023/04/08 00:45:58;;;;;;;30.50;12.68;;;;;;;6.97;100.00;102122.41;5049133;28;20028;-95
2023/04/08 00:48:24;;;;;;;29.77;12.07;;;;;;;7.08;100.00;102139.66;5046785;28;20049;-94
2023/04/08 00:50:57;;;;;;;30.63;12.83;;;;;;;7.12;100.00;102148.91;5047101;28;20304;-93
2023/04/08 00:53:22;;;;;;;33.83;13.35;;;;;;;7.12;100.00;102147.03;5047623;28;20045;-94
2023/04/08 00:55:50;;;;;;;38.20;13.00;;;;;;;7.07;100.00;102141.53;5047369;28;20029;-93
2023/04/08 00:58:16;;;;;;;30.98;13.23;;;;;;;6.98;100.00;102118.72;5053980;28;20025;-94
2023/04/08 01:00:50;;;;;;;43.38;13.70;;;;;;;7.06;100.00;102131.03;5055936;28;20026;-94
2023/04/08 01:03:22;;;;;;;42.50;13.88;;;;;;;7.11;100.00;102144.59;5055943;28;20048;-95
2023/04/08 01:05:55;;;;;;;49.03;14.88;;;;;;;7.05;100.00;102140.91;5056165;28;20234;-94
2023/04/08 01:08:23;;;;;;;38.35;14.02;;;;;;;6.99;100.00;102138.22;5052464;28;20075;-94
2023/04/08 01:11:13;;;;;;;;;;;;;;;;;;;;;
2023/04/08 01:13:42;;;;;;;44.30;14.20;;;;;;;6.85;100.00;102119.50;5050068;28;20302;-95
2023/04/08 01:16:19;;;;;;;46.22;15.35;;;;;;;6.96;100.00;102147.41;5051303;28;20033;-93
2023/04/08 01:18:46;;;;;;;38.67;14.45;;;;;;;6.91;100.00;102139.22;5052798;28;20037;-94
2023/04/08 01:21:19;;;;;;;35.38;14.25;;;;;;;6.81;100.00;102126.28;5053500;28;20033;-94
2023/04/08 01:24:01;;;;;;;38.72;14.90;;;;;;;6.84;100.00;102139.22;5053501;28;20049;-93
2023/04/08 01:26:29;;;;;;;46.25;14.98;;;;;;;6.92;100.00;102148.88;5052484;28;20039;-94
2023/04/08 01:28:58;;;;;;;41.03;14.05;;;;;;;6.87;100.00;102138.78;5051035;28;20041;-93
2023/04/08 01:31:36;;;;;;;41.17;14.57;;;;;;;6.85;100.00;102137.34;5052326;28;20030;-94
2023/04/08 01:34:58;;;;;;;51.23;16.00;;;;;;;6.90;100.00;102150.91;5050696;28;20276;-94
2023/04/08 01:37:35;;;;;;;46.88;15.35;;;;;;;6.82;100.00;102144.72;5045678;28;20025;-93
2023/04/08 01:40:02;;;;;;;45.72;16.17;;;;;;;6.74;100.00;102139.59;5044482;28;20022;-94
2023/04/08 01:42:29;;;;;;;52.55;17.02;;;;;;;6.82;100.00;102160.72;5040505;28;20022;-94
2023/04/08 01:44:57;;;;;;;48.90;17.40;;;;;;;6.75;100.00;102145.72;5039741;28;20026;-93
2023/04/08 01:47:25;;;;;;;45.53;15.73;;;;;;;6.74;100.00;102147.59;5036008;28;20040;-93
2023/04/08 01:49:52;;;;;;;44.95;17.10;;;;;;;6.76;100.00;102150.84;5038324;28;20022;-93
2023/04/08 01:52:22;;;;;;;48.42;17.60;;;;;;;6.83;100.00;102164.22;5039702;28;20048;-93
2023/04/08 01:54:48;;;;;;;39.03;16.35;;;;;;;6.78;100.00;102156.78;5038391;28;20027;-94
2023/04/08 01:57:36;;;;;;;46.83;16.30;;;;;;;6.67;100.00;102142.19;5038143;28;20112;-93
2023/04/08 02:00:06;;;;;;;47.30;17.05;;;;;;;6.73;100.00;102145.09;5036729;28;20021;-94
2023/04/08 02:02:34;;;;;;;40.67;17.08;;;;;;;6.66;100.00;102137.09;5037913;28;20026;-93
2023/04/08 02:04:59;;;;;;;47.08;17.00;;;;;;;6.78;100.00;102158.66;5037040;28;20021;-94
2023/04/08 02:07:25;;;;;;;43.37;16.17;;;;;;;6.82;100.00;102168.69;5035006;28;20021;-94
2023/04/08 02:10:00;;;;;;;;;;;;;;;;;;;;;
2023/04/08 02:12:27;;;;;;;50.73;18.60;;;;;;;6.76;100.00;102156.16;5036982;28;20375;-94
2023/04/08 02:15:02;;;;;;;47.15;17.88;;;;;;;6.72;100.00;102149.63;5047948;28;20032;-93
2023/04/08 02:17:45;;;;;;;45.20;16.80;;;;;;;6.73;100.00;102148.59;5053572;28;20029;-93
2023/04/08 02:20:17;;;;;;;46.25;17.77;;;;;;;6.80;100.00;102162.75;5043531;28;20056;-94
2023/04/08 02:22:57;;;;;;;51.65;16.95;;;;;;;6.79;100.00;102162.97;5050197;28;20098;-93
2023/04/08 02:25:29;;;;;;;44.55;16.75;;;;;;;6.70;100.00;102149.00;5047857;28;20392;-93
2023/04/08 02:27:56;;;;;;;51.08;16.88;;;;;;;6.66;100.00;102142.41;5036772;28;20106;-93
2023/04/08 02:30:24;;;;;;;46.42;17.20;;;;;;;6.68;100.00;102145.69;5036196;28;20453;-93
2023/04/08 02:32:52;;;;;;;43.33;16.50;;;;;;;6.77;100.00;102168.47;5038287;28;20029;-93
2023/04/08 02:35:27;;;;;;;47.60;17.27;;;;;;;6.82;100.00;102168.69;5036690;28;20299;-92
2023/04/08 02:37:53;;;;;;;47.15;16.90;;;;;;;6.82;100.00;102167.91;5034285;28;20034;-93
2023/04/08 02:40:32;;;;;;;53.53;16.63;;;;;;;6.81;100.00;102172.38;5034706;28;20025;-94
2023/04/08 02:42:58;;;;;;;45.60;17.37;;;;;;;6.72;100.00;102151.44;5034337;28;20025;-93
2023/04/08 02:45:30;;;;;;;51.57;17.80;;;;;;;6.80;100.00;102170.75;5035989;28;20767;-93
2023/04/08 02:47:56;;;;;;;51.90;18.00;;;;;;;6.66;100.00;102159.19;5033313;28;20096;-93
2023/04/08 02:50:22;;;;;;;53.25;17.63;;;;;;;6.65;100.00;102159.41;5033791;28;20033;-93
2023/04/08 02:52:50;;;;;;;51.60;17.40;;;;;;;6.70;100.00;102170.31;5032685;28;20040;-94
2023/04/08 02:55:16;;;;;;;44.72;17.83;;;;;;;6.77;100.00;102179.13;5035190;28;20093;-93
2023/04/08 02:57:42;;;;;;;47.50;16.88;;;;;;;6.73;100.00;102167.25;5034607;28;20124;-92
2023/04/08 03:00:08;;;;;;;54.00;18.30;;;;;;;6.80;100.00;102186.72;5045366;28;20025;-92
2023/04/08 03:02:46;;;;;;;53.63;19.17;;;;;;;6.74;100.00;102176.88;5045953;28;20005;-93
2023/04/08 03:05:11;;;;;;;54.33;17.70;;;;;;;6.73;100.00;102177.91;5049327;28;20031;-94
2023/04/08 03:07:39;;;;;;;49.23;18.43;;;;;;;6.78;100.00;102185.28;5049394;28;20026;-93
2023/04/08 03:10:06;;;;;;;57.83;17.73;;;;;;;6.73;100.00;102174.41;5049211;28;20081;-93
2023/04/08 03:12:31;;;;;;;56.53;19.30;;;;;;;6.62;100.00;102151.81;5048546;28;20033;-93
2023/04/08 03:15:02;;;;;;;47.80;18.20;;;;;;;6.67;100.00;102166.19;5049026;28;20062;-93
2023/04/08 03:17:27;;;;;;;54.03;18.73;;;;;;;6.69;100.00;102168.66;5049524;28;20021;-93
2023/04/08 03:19:53;;;;;;;47.35;18.77;;;;;;;6.77;100.00;102179.13;5047504;28;20044;-93
2023/04/08 03:22:27;;;;;;;55.43;18.43;;;;;;;6.72;100.00;102178.09;5049488;28;20348;-92
2023/04/08 03:24:52;;;;;;;46.77;17.70;;;;;;;6.66;100.00;102171.72;5046463;28;20120;-93
2023/04/08 03:27:18;;;;;;;47.97;18.73;;;;;;;6.71;100.00;102177.28;5046794;28;20279;-93
2023/04/08 03:29:46;;;;;;;46.37;19.07;;;;;;;6.58;100.00;102156.72;5042684;28;20172;-93
2023/04/08 03:32:12;;;;;;;53.15;19.23;;;;;;;6.61;100.00;102155.50;5035269;28;20022;-93
2023/04/08 03:34:49;;;;;;;55.93;19.20;;;;;;;6.65;100.00;102162.06;5038667;28;20117;-93
2023/04/08 03:37:15;;;;;;;50.00;19.08;;;;;;;6.76;100.00;102180.16;5035937;28;20045;-94
2023/04/08 03:39:41;;;;;;;50.88;19.10;;;;;;;6.72;100.00;102178.09;5034944;28;20441;-94
2023/04/08 03:42:06;;;;;;;47.37;19.07;;;;;;;6.60;100.00;102156.50;5039887;28;20029;-95
2023/04/08 03:44:32;;;;;;;54.10;19.63;;;;;;;6.64;100.00;102160.44;5038016;28;20025;-95
2023/04/08 03:46:57;;;;;;;48.30;18.93;;;;;;;6.71;100.00;102171.13;5038348;28;20025;-94
2023/04/08 03:49:23;;;;;;;51.27;19.37;;;;;;;6.65;100.00;102168.25;5035479;28;20132;-94
2023/04/08 03:52:01;;;;;;;;;;;;;;;;;;;;;
2023/04/08 03:54:27;;;;;;;44.23;19.57;;;;;;;6.62;100.00;102170.47;5033286;28;20041;-95
2023/04/08 03:56:52;;;;;;;50.85;18.70;;;;;;;6.73;100.00;102193.88;5033977;28;20538;-95
2023/04/08 03:59:21;;;;;;;52.53;20.37;;;;;;;6.64;100.00;102171.94;5033641;28;20025;-94
2023/04/08 04:01:52;;;;;;;54.50;20.00;;;;;;;6.78;100.00;102199.41;5034061;28;20636;-95
2023/04/08 04:04:22;;;;;;;54.80;19.52;;;;;;;6.63;100.00;102174.78;5033427;28;20032;-94
2023/04/08 04:06:48;;;;;;;51.35;20.33;;;;;;;6.69;100.00;102183.81;5031635;28;20053;-94
2023/04/08 04:09:14;;;;;;;55.50;18.33;;;;;;;6.68;100.00;102188.31;5032824;28;20076;-94
2023/04/08 04:11:39;;;;;;;58.13;19.45;;;;;;;6.60;100.00;102178.66;5032622;28;20123;-95
2023/04/08 04:14:04;;;;;;;56.40;20.37;;;;;;;6.46;100.00;102167.13;5032749;28;20053;-95
2023/04/08 04:16:30;;;;;;;48.27;19.20;;;;;;;6.39;100.00;102168.91;5035544;28;20021;-94
2023/04/08 04:18:55;;;;;;;55.67;19.33;;;;;;;6.32;100.00;102168.88;5049617;28;20026;-94
2023/04/08 04:21:30;;;;;;;56.80;20.33;;;;;;;6.34;100.00;102176.69;5043233;28;20033;-94
2023/04/08 04:23:55;;;;;;;52.87;19.00;;;;;;;6.39;100.00;102190.22;5043315;28;20295;-94
2023/04/08 04:26:21;;;;;;;63.75;20.83;;;;;;;6.46;100.00;102193.75;5033883;28;20030;-94
2023/04/08 04:28:46;;;;;;;57.17;20.90;;;;;;;6.47;100.00;102191.91;5032086;28;20033;-94
2023/04/08 04:31:26;;;;;;;55.87;20.27;;;;;;;6.63;100.00;102217.38;5032422;28;20097;-94
2023/04/08 04:33:52;;;;;;;61.50;21.10;;;;;;;6.53;100.00;102192.97;5038816;28;20029;-94
2023/04/08 04:36:20;;;;;;;62.10;21.08;;;;;;;6.58;100.00;102195.84;5041170;28;20052;-94
2023/04/08 04:38:50;;;;;;;53.33;21.02;;;;;;;6.50;100.00;102191.50;5037049;28;20473;-94
2023/04/08 04:41:15;;;;;;;58.97;20.23;;;;;;;6.61;100.00;102217.59;5034448;28;20469;-93
2023/04/08 04:43:46;;;;;;;57.33;21.60;;;;;;;6.60;100.00;102215.13;5032478;28;20298;-94
2023/04/08 04:46:14;;;;;;;62.40;21.02;;;;;;;6.58;100.00;102214.47;5033357;28;20025;-94
2023/04/08 04:48:43;;;;;;;64.15;22.15;;;;;;;6.61;100.00;102212.28;5031042;28;20036;-94
2023/04/08 04:51:08;;;;;;;65.55;21.85;;;;;;;6.73;100.00;102233.00;5032352;28;20484;-93
2023/04/08 04:53:39;;;;;;;65.97;20.60;;;;;;;6.59;100.00;102210.81;5032032;28;20022;-94
2023/04/08 04:56:04;;;;;;;66.50;21.60;;;;;;;6.73;100.00;102230.34;5033268;28;20017;-93
2023/04/08 04:58:30;;;;;;;52.50;21.07;;;;;;;6.68;100.00;102233.59;5032678;28;20053;-94
2023/04/08 05:00:56;;;;;;;61.55;22.33;;;;;;;6.71;100.00;102237.72;5035511;28;20041;-93
2023/04/08 05:03:21;;;;;;;58.47;20.83;;;;;;;6.70;100.00;102239.56;5037817;28;20025;-94
2023/04/08 05:05:51;;;;;;;53.27;21.30;;;;;;;6.69;100.00;102237.91;5037029;28;20025;-93
2023/04/08 05:08:18;;;;;;;50.63;19.75;;;;;;;6.75;100.00;102246.97;5036709;28;20032;-93
2023/04/08 05:10:50;;;;;;;52.95;20.58;;;;;;;6.62;100.00;102232.56;5035186;28;20104;-93
2023/04/08 05:13:24;;;;;;;51.80;20.67;;;;;;;6.76;100.00;102257.41;5035946;28;20033;-94
2023/04/08 05:15:49;;;;;;;51.13;20.25;;;;;;;6.68;100.00;102238.94;5037657;28;20021;-94
2023/04/08 05:18:23;;;;;;;47.73;19.67;;;;;;;6.58;100.00;102230.47;5034474;28;20500;-93
2023/04/08 05:20:48;;;;;;;48.22;19.80;;;;;;;6.78;100.00;102268.69;5034593;28;20511;-93
2023/04/08 05:23:13;;;;;;;46.73;19.10;;;;;;;6.63;100.00;102234.22;5034842;28;20025;-94
2023/04/08 05:25:39;;;;;;;45.00;18.57;;;;;;;6.77;100.00;102252.91;5034368;28;20492;-93
2023/04/08 05:28:11;;;;;;;48.63;19.05;;;;;;;6.73;100.00;102241.00;5034875;28;20030;-95
2023/04/08 05:30:36;;;;;;;45.30;19.15;;;;;;;6.82;100.00;102259.28;5034294;28;20175;-93
2023/04/08 05:33:02;;;;;;;39.20;16.87;;;;;;;6.86;100.00;102269.56;5034961;28;20072;-94
2023/04/08 05:35:34;;;;;;;35.67;15.95;;;;;;;6.86;100.00;102264.25;5034459;28;20029;-94
2023/04/08 05:38:02;;;;;;;40.08;18.25;;;;;;;6.77;100.00;102244.94;5034572;28;20022;-93
2023/04/08 05:40:38;;;;;;;53.72;22.23;;;;;;;6.86;100.00;102264.25;5015958;28;20458;-93
2023/04/08 05:43:09;;;;;;;53.80;22.73;;;;;;;6.73;100.00;102249.84;5033514;28;20507;-94
2023/04/08 05:45:35;;;;;;;60.97;23.92;;;;;;;6.78;100.00;102254.56;5034099;28;20029;-94
2023/04/08 05:48:00;;;;;;;66.33;24.07;;;;;;;6.94;100.00;102274.72;5044649;28;20037;-94
2023/04/08 05:50:26;;;;;;;68.32;25.30;;;;;;;6.79;100.00;102254.34;5050721;28;20520;-94
2023/04/08 05:52:51;;;;;;;63.60;24.27;;;;;;;6.84;100.00;102255.63;5050591;28;20515;-94
2023/04/08 05:55:17;;;;;;;54.70;23.27;;;;;;;6.92;100.00;102269.59;5051045;28;20036;-94
2023/04/08 05:57:45;;;;;;;56.60;24.03;;;;;;;6.87;100.00;102256.03;5053131;28;20022;-94
2023/04/08 06:00:15;;;;;;;58.75;23.05;;;;;;;7.02;100.00;102285.22;5052096;28;20296;-94
2023/04/08 06:02:40;;;;;;;56.28;23.45;;;;;;;6.91;100.00;102261.81;5044316;28;20045;-94
2023/04/08 06:05:09;;;;;;;57.20;22.37;;;;;;;7.03;100.00;102273.53;5041016;28;20028;-93
2023/04/08 06:07:44;;;;;;;55.90;23.50;;;;;;;7.13;100.00;102279.31;5034392;28;20045;-95
2023/04/08 06:10:22;;;;;;;56.53;23.42;;;;;;;7.09;100.00;102267.44;5034340;28;20108;-94
2023/04/08 06:12:56;;;;;;;53.15;23.52;;;;;;;7.12;100.00;102277.66;5034945;28;20170;-93
2023/04/08 06:15:24;;;;;;;56.95;24.08;;;;;;;7.27;100.00;102292.72;5028410;28;20040;-94
2023/04/08 06:17:53;;;;;;;56.70;23.02;;;;;;;7.29;100.00;102282.69;5034994;28;20056;-93
2023/04/08 06:20:20;;;;;;;54.35;23.17;;;;;;;7.27;100.00;102274.84;5034858;28;20444;-93
2023/04/08 06:22:46;;;;;;;53.00;23.40;;;;;;;7.43;100.00;102302.19;5032031;28;20112;-93
2023/04/08 06:25:11;;;;;;;50.87;22.23;;;;;;;7.46;100.00;102314.31;5034458;28;20029;-94
2023/04/08 06:27:36;;;;;;;51.13;22.33;;;;;;;7.37;100.00;102292.34;5032769;28;20439;-93
2023/04/08 06:30:05;;;;;;;54.77;24.20;;;;;;;7.38;100.00;102299.31;5033693;28;20030;-94
2023/04/08 06:32:37;;;;;;;51.65;23.13;;;;;;;7.38;100.00;102300.13;5034596;28;20479;-94
2023/04/08 06:35:02;;;;;;;56.85;24.85;;;;;;;7.50;100.00;102312.88;5032667;28;20025;-94
2023/04/08 06:37:37;;;;;;;50.80;24.43;;;;;;;7.53;100.00;102321.31;5032054;28;20025;-95
2023/04/08 06:40:15;;;;;;;48.80;23.13;;;;;;;7.57;100.00;102321.72;5030357;28;20038;-95
2023/04/08 06:42:53;;;;;;;52.33;23.63;;;;;;;7.58;100.00;102310.84;5031406;28;20511;-95
2023/04/08 06:45:18;;;;;;;51.30;23.52;;;;;;;7.53;100.00;102305.31;5032852;28;20033;-95
2023/04/08 06:47:56;;;;;;;53.03;24.10;;;;;;;7.61;100.00;102308.81;5032350;28;20030;-94
2023/04/08 06:50:22;;;;;;;52.30;23.17;;;;;;;7.75;100.00;102323.00;5031676;28;20037;-94
2023/04/08 06:52:50;;;;;;;47.17;21.90;;;;;;;7.81;100.00;102319.53;5032380;28;20026;-94
2023/04/08 06:55:16;;;;;;;46.90;21.80;;;;;;;7.87;100.00;102326.72;5032150;28;20280;-95
2023/04/08 06:57:47;;;;;;;45.90;20.40;;;;;;;8.01;100.00;102331.06;5032335;28;20055;-94
2023/04/08 07:00:13;;;;;;;37.60;19.57;;;;;;;8.05;100.00;102328.81;5032296;28;20029;-94
2023/04/08 07:02:45;;;;;;;40.03;19.58;;;;;;;8.15;100.00;102326.56;5032644;28;20101;-95
2023/04/08 07:05:12;;;;;;;35.47;18.52;;;;;;;8.13;100.00;102333.13;5032847;28;20045;-95
2023/04/08 07:07:37;;;;;;;41.25;19.40;;;;;;;8.31;100.00;102353.88;5015755;28;20045;-95
2023/04/08 07:10:16;;;;;;;;;;;;;;;;;;;;;
2023/04/08 07:12:42;;;;;;;32.42;16.42;;;;;;;8.23;100.00;102343.41;5034697;28;20132;-94
2023/04/08 07:15:08;;;;;;;32.10;16.93;;;;;;;8.36;100.00;102361.28;5030294;28;20041;-94
2023/04/08 07:17:33;;;;;;;32.28;16.55;;;;;;;8.22;100.00;102349.78;5030501;28;20095;-94
2023/04/08 07:23:06;;;;;;;30.33;17.73;;;;;;;8.55;100.00;102383.72;5009019;28;20121;-94
2023/04/08 07:25:53;;;;;;;32.58;17.50;;;;;;;8.52;100.00;102389.47;5009526;28;20117;-94
2023/04/08 07:28:19;;;;;;;31.92;17.00;;;;;;;8.36;100.00;102370.13;4970837;28;20037;-94
2023/04/08 07:30:47;;;;;;;32.63;16.88;;;;;;;8.37;100.00;102378.97;5020090;28;20467;-95
2023/04/08 07:33:13;;;;;;;30.63;17.00;;;;;;;8.31;100.00;102370.75;5029426;28;20033;-96
2023/04/08 07:35:39;;;;;;;30.63;15.87;;;;;;;8.37;100.00;102386.97;5012968;28;20033;-95
2023/04/08 07:38:15;;;;;;;;;;;;;;;;;;;;;
2023/04/08 07:40:50;;;;;;;31.30;15.38;;;;;;;8.24;100.00;102375.25;5018943;28;20048;-95
2023/04/08 07:43:15;;;;;;;31.50;16.88;;;;;;;8.34;100.00;102378.34;5030622;28;20033;-95
2023/04/08 07:45:42;;;;;;;29.80;16.20;;;;;;;8.40;100.00;102387.38;5029073;28;20059;-93
2023/04/08 07:48:14;;;;;;;28.50;16.13;;;;;;;8.34;100.00;102374.84;5031081;28;20033;-96
2023/04/08 07:50:39;;;;;;;31.13;16.60;;;;;;;8.51;100.00;102388.66;5032259;28;20037;-95
2023/04/08 07:53:05;;;;;;;31.13;16.80;;;;;;;8.59;100.00;102388.44;5032389;28;20041;-94
2023/04/08 07:55:40;;;;;;;29.23;16.53;;;;;;;8.50;100.00;102387.00;5032133;28;20028;-96
2023/04/08 07:58:17;;;;;;;28.58;16.08;;;;;;;8.67;100.00;102410.66;5032237;28;20079;-95
2023/04/08 08:00:49;;;;;;;29.13;15.90;;;;;;;8.73;100.00;102399.94;5032126;28;20021;-95
2023/04/08 08:03:16;;;;;;;25.63;14.90;;;;;;;8.86;100.00;102385.75;5032088;28;20017;-95
2023/04/08 08:05:48;;;;;;;29.95;16.08;;;;;;;9.17;100.00;102410.19;5032997;28;20029;-95
2023/04/08 08:08:16;;;;;;;27.95;15.65;;;;;;;9.09;100.00;102389.84;5032169;28;20083;-95
2023/04/08 08:10:45;;;;;;;26.77;15.45;;;;;;;9.18;100.00;102395.78;5032125;28;20159;-95
2023/04/08 08:13:20;;;;;;;27.60;15.07;;;;;;;9.29;100.00;102408.50;5032368;28;20079;-95
2023/04/08 08:15:45;;;;;;;30.53;15.27;;;;;;;9.31;100.00;102414.47;5031900;28;20280;-96
2023/04/08 08:18:10;;;;;;;30.08;17.08;;;;;;;9.28;100.00;102420.22;5031728;28;20094;-95
2023/04/08 08:20:48;;;;;;;28.50;16.43;;;;;;;9.34;100.00;102407.84;5033971;28;20024;-94
2023/04/08 08:23:21;;;;;;;27.48;15.68;;;;;;;9.36;100.00;102438.72;5031084;28;20017;-94
2023/04/08 08:25:46;;;;;;;27.08;15.98;;;;;;;9.18;100.00;102420.66;5031746;28;20030;-94
2023/04/08 08:28:13;;;;;;;28.43;14.90;;;;;;;9.03;100.00;102428.09;5032249;28;20018;-96
2023/04/08 08:30:45;;;;;;;29.50;16.73;;;;;;;9.00;100.00;102417.81;5031645;28;20159;-95
2023/04/08 08:33:10;;;;;;;28.33;16.58;;;;;;;8.97;100.00;102428.91;5035330;28;20047;-94
2023/04/08 08:35:36;;;;;;;30.70;17.57;;;;;;;8.94;100.00;102422.97;5032457;28;20477;-95
2023/04/08 08:38:33;;;;;;;31.17;16.63;;;;;;;9.19;100.00;102438.34;5035943;28;20083;-95
2023/04/08 08:43:25;;;;;;;28.10;16.45;;;;;;;9.48;100.00;102441.59;5041658;22;20090;-95
2023/04/08 08:45:50;;;;;;;28.20;16.45;;;;;;;9.44;100.00;102445.72;5036456;28;20109;-95
2023/04/08 08:48:40;;;;;;;28.83;16.03;;;;;;;9.59;100.00;102452.66;5035751;28;20489;-94
2023/04/08 08:51:18;;;;;;;26.77;15.50;;;;;;;9.60;100.00;102448.94;5035810;28;20061;-95
2023/04/08 08:53:44;;;;;;;29.27;15.90;;;;;;;9.66;100.00;102442.75;5034265;28;20564;-95
2023/04/08 08:56:39;;;;;;;32.33;17.23;;;;;;;9.75;100.00;102440.66;5035533;28;20448;-94
2023/04/08 08:59:05;;;;;;;28.55;16.55;;;;;;;9.53;100.00;102432.91;4993166;28;20034;-95
2023/04/08 09:01:36;;;;;;;29.03;17.23;;;;;;;9.48;100.00;102452.28;5030983;28;20037;-94
2023/04/08 09:04:18;;;;;;;30.67;17.55;;;;;;;9.59;100.00;102452.66;5035317;28;20038;-94
2023/04/08 09:06:45;;;;;;;29.95;16.50;;;;;;;9.52;100.00;102447.34;5035596;28;20052;-94
2023/04/08 09:09:11;;;;;;;28.70;17.33;;;;;;;9.63;100.00;102476.09;5036722;28;20120;-94
2023/04/08 09:11:39;;;;;;;26.80;16.45;;;;;;;9.65;100.00;102463.34;5039765;28;20056;-95
2023/04/08 09:14:05;;;;;;;30.40;16.73;;;;;;;9.82;100.00;102471.72;5036841;28;20017;-95
2023/04/08 09:16:31;;;;;;;30.40;17.63;;;;;;;9.81;100.00;102464.72;5038427;28;20347;-93
2023/04/08 09:19:09;;;;;;;30.27;17.25;;;;;;;9.89;100.00;102463.66;5038147;28;20049;-96
2023/04/08 09:21:34;;;;;;;33.22;17.70;;;;;;;10.02;100.00;102468.16;5035347;28;20048;-96
2023/04/08 09:24:03;;;;;;;25.60;16.13;;;;;;;10.36;100.00;102484.84;5065521;22;20492;-96
2023/04/08 09:26:28;;;;;;;26.20;15.70;;;;;;;10.59;100.00;102478.16;5056844;28;20108;-94
2023/04/08 09:29:11;;;;;;;23.27;15.23;;;;;;;10.75;100.00;102484.81;5057122;28;20056;-92
2023/04/08 09:31:41;;;;;;;24.40;15.43;;;;;;;10.75;100.00;102492.84;5056634;28;20112;-95
2023/04/08 09:34:13;;;;;;;23.35;15.23;;;;;;;10.93;100.00;102496.63;5055572;28;20059;-94
2023/04/08 09:36:43;;;;;;;26.35;14.90;;;;;;;10.88;100.00;102475.84;5057190;28;20480;-96
2023/04/08 09:39:15;;;;;;;26.33;16.15;;;;;;;10.94;100.00;102485.72;5038584;28;20027;-95
2023/04/08 09:41:42;;;;;;;26.75;16.27;;;;;;;10.96;100.00;102496.19;5056569;28;20036;-96
2023/04/08 09:44:09;;;;;;;25.85;16.35;;;;;;;10.91;100.00;102491.50;5060662;28;20021;-96
2023/04/08 09:46:50;;;;;;;26.03;16.63;;;;;;;10.96;100.00;102498.88;5060373;28;20117;-95
2023/04/08 09:50:07;;;;;;;24.90;15.90;;;;;;;11.06;100.00;102483.09;5042726;28;20279;-95
2023/04/08 09:53:05;;;;;;;24.23;15.82;;;;;;;11.10;100.00;102488.88;5062151;28;20037;-94
2023/04/08 09:55:47;;;;;;;24.73;16.60;;;;;;;11.19;100.00;102492.91;5061721;28;20025;-95
2023/04/08 09:58:36;;;;;;;26.15;16.30;;;;;;;11.30;100.00;102494.03;5056254;28;20028;-95
2023/04/08 10:01:39;;;;;;;23.52;15.30;;;;;;;11.44;100.00;102502.78;5056035;28;20040;-95
2023/04/08 10:04:47;;;;;;;22.33;15.00;;;;;;;11.62;100.00;102502.78;5054293;28;20423;-96
2023/04/08 10:07:25;;;;;;;22.98;15.52;;;;;;;11.76;100.00;102497.25;5057665;28;20443;-96
2023/04/08 10:09:51;;;;;;;22.98;15.43;;;;;;;11.73;98.55;102485.09;5069957;28;20017;-95
2023/04/08 10:12:17;;;;;;;22.53;15.20;;;;;;;11.73;97.62;102486.97;5057875;28;20067;-95
2023/04/08 10:15:25;;;;;;;23.08;15.45;;;;;;;11.88;99.84;102489.25;5053671;28;20021;-95
2023/04/08 10:18:21;;;;;;;22.75;14.80;;;;;;;11.82;96.22;102470.31;5054452;28;20040;-95
2023/04/08 10:20:48;;;;;;;23.58;15.68;;;;;;;11.88;95.09;102490.06;5045919;28;20037;-95
2023/04/08 10:23:15;;;;;;;21.70;16.08;;;;;;;11.93;95.70;102490.22;5054009;28;20024;-95
2023/04/08 10:25:41;;;;;;;20.53;14.77;;;;;;;12.12;95.66;102484.84;5053909;28;20075;-95
2023/04/08 10:28:18;;;;;;;20.10;14.93;;;;;;;12.37;95.37;102497.34;5054185;28;20283;-96
2023/04/08 10:31:01;;;;;;;24.20;15.60;;;;;;;12.51;93.26;102498.78;5053700;28;20029;-95
2023/04/08 10:33:35;;;;;;;20.08;14.90;;;;;;;12.64;92.15;102489.69;5054059;28;20029;-95
2023/04/08 10:36:14;;;;;;;20.08;15.07;;;;;;;12.79;91.50;102485.72;5036868;28;20035;-95
2023/04/08 10:38:52;;;;;;;22.27;16.05;;;;;;;12.90;89.01;102486.78;5053591;28;20393;-95
2023/04/08 10:41:23;;;;;;;23.23;15.82;;;;;;;12.83;88.40;102476.94;5054106;28;20085;-96
2023/04/08 10:43:50;;;;;;;24.37;16.43;;;;;;;12.83;89.72;102479.63;5053805;28;20024;-96
2023/04/08 10:46:16;;;;;;;18.23;15.10;;;;;;;13.08;90.10;102500.13;5054056;28;20307;-96
2023/04/08 10:48:41;;;;;;;22.20;15.75;;;;;;;12.79;90.22;102477.66;5053158;28;20055;-96
2023/04/08 10:51:06;;;;;;;18.93;15.13;;;;;;;12.91;91.30;102465.03;5034732;28;20115;-95
2023/04/08 10:53:35;;;;;;;20.45;14.98;;;;;;;12.95;89.09;102460.00;5033146;28;20052;-96
2023/04/08 10:56:13;;;;;;;20.52;16.23;;;;;;;12.88;87.32;102449.34;5053905;28;20025;-96
2023/04/08 10:59:08;;;;;;;20.25;16.05;;;;;;;13.02;90.72;102456.16;5051639;28;20488;-96
2023/04/08 11:01:40;;;;;;;23.63;15.52;;;;;;;13.20;90.49;102461.63;5047039;28;20037;-96
2023/04/08 11:04:18;;;;;;;23.10;15.90;;;;;;;13.22;86.65;102456.84;5054554;28;20024;-96
2023/04/08 11:06:45;;;;;;;24.60;15.57;;;;;;;13.09;86.04;102471.34;5053283;28;20287;-96
2023/04/08 11:09:10;;;;;;;20.63;15.48;;;;;;;12.95;87.42;102481.53;5052619;28;20048;-96
2023/04/08 11:11:36;;;;;;;23.08;15.95;;;;;;;12.66;84.96;102467.94;5052844;28;20029;-96
2023/04/08 11:14:03;;;;;;;22.80;16.08;;;;;;;12.60;89.62;102475.06;5034929;28;20115;-96
2023/04/08 11:16:28;;;;;;;20.48;15.73;;;;;;;12.76;88.08;102473.56;5053110;28;20425;-96
2023/04/08 11:18:57;;;;;;;22.10;15.60;;;;;;;12.80;88.07;102458.59;5053493;28;20021;-94
2023/04/08 11:21:23;;;;;;;19.13;15.02;;;;;;;13.04;92.73;102466.66;5052104;28;20120;-95
2023/04/08 11:23:50;;;;;;;21.80;16.17;;;;;;;13.03;88.89;102460.47;5052698;28;20053;-95
2023/04/08 11:26:34;;;;;;;20.27;15.87;;;;;;;13.11;93.37;102453.94;5053272;28;20029;-95
2023/04/08 11:29:29;;;;;;;19.27;15.27;;;;;;;12.84;89.70;102449.00;5053071;28;20341;-96
2023/04/08 11:31:55;;;;;;;20.90;14.77;;;;;;;12.82;87.25;102467.25;5044942;28;20048;-96
2023/04/08 11:34:24;;;;;;;20.52;15.45;;;;;;;12.73;87.54;102452.50;5053365;28;20048;-96
2023/04/08 11:36:52;;;;;;;21.60;15.60;;;;;;;12.69;87.02;102468.28;5053723;28;20036;-96